sensor_id;sensor_type;location;lat;lon;timestamp;pressure;altitude;pressure_sealevel;temperature;humidity
33781;BME280;20097;50.832;19.100;2022-12-29T00:05:04;98209.00;;;3.99;96.05
33781;BME280;20097;50.832;19.100;2022-12-29T00:10:10;98201.25;;;3.99;96.63
33781;BME280;20097;50.832;19.100;2022-12-29T00:15:15;98192.00;;;3.97;97.57
33781;BME280;20097;50.832;19.100;2022-12-29T00:20:38;98184.66;;;3.92;97.13
33781;BME280;20097;50.832;19.100;2022-12-29T00:26:08;98180.47;;;3.91;98.38
33781;BME280;20097;50.832;19.100;2022-12-29T00:31:31;98185.22;;;3.86;99.17
33781;BME280;20097;50.832;19.100;2022-12-29T00:36:53;98163.31;;;3.81;99.68
33781;BME280;20097;50.832;19.100;2022-12-29T00:42:05;98172.31;;;3.77;99.72
33781;BME280;20097;50.832;19.100;2022-12-29T00:47:39;98172.94;;;3.69;100.00
33781;BME280;20097;50.832;19.100;2022-12-29T00:52:43;98162.22;;;3.64;100.00
33781;BME280;20097;50.832;19.100;2022-12-29T00:57:49;98155.00;;;3.58;100.00
33781;BME280;20097;50.832;19.100;2022-12-29T01:02:54;98158.00;;;3.54;100.00
33781;BME280;20097;50.832;19.100;2022-12-29T01:07:58;98150.94;;;3.56;100.00
33781;BME280;20097;50.832;19.100;2022-12-29T01:13:04;98143.88;;;3.58;100.00
33781;BME280;20097;50.832;19.100;2022-12-29T01:18:09;98137.63;;;3.60;100.00
33781;BME280;20097;50.832;19.100;2022-12-29T01:23:13;98136.53;;;3.63;100.00
33781;BME280;20097;50.832;19.100;2022-12-29T01:28:22;98135.47;;;3.65;100.00
33781;BME280;20097;50.832;19.100;2022-12-29T01:33:28;98125.69;;;3.69;100.00
33781;BME280;20097;50.832;19.100;2022-12-29T01:38:34;98139.81;;;3.74;100.00
33781;BME280;20097;50.832;19.100;2022-12-29T01:43:43;98138.47;;;3.80;100.00
33781;BME280;20097;50.832;19.100;2022-12-29T01:48:51;98132.75;;;3.86;100.00
33781;BME280;20097;50.832;19.100;2022-12-29T01:53:59;98128.44;;;3.86;100.00
33781;BME280;20097;50.832;19.100;2022-12-29T01:59:12;98130.19;;;3.95;100.00
33781;BME280;20097;50.832;19.100;2022-12-29T02:04:19;98121.63;;;4.04;100.00
33781;BME280;20097;50.832;19.100;2022-12-29T02:09:24;98105.72;;;4.09;100.00
33781;BME280;20097;50.832;19.100;2022-12-29T02:14:30;98117.53;;;4.11;100.00
33781;BME280;20097;50.832;19.100;2022-12-29T02:26:16;98123.22;;;4.15;100.00
33781;BME280;20097;50.832;19.100;2022-12-29T02:31:34;98113.44;;;4.18;100.00
33781;BME280;20097;50.832;19.100;2022-12-29T02:36:49;98104.47;;;4.22;100.00
33781;BME280;20097;50.832;19.100;2022-12-29T02:42:07;98078.66;;;4.22;98.93
33781;BME280;20097;50.832;19.100;2022-12-29T02:47:21;98077.81;;;4.22;99.10
33781;BME280;20097;50.832;19.100;2022-12-29T02:52:31;98060.56;;;4.22;98.79
33781;BME280;20097;50.832;19.100;2022-12-29T02:57:38;98065.31;;;4.27;98.00
33781;BME280;20097;50.832;19.100;2022-12-29T03:03:01;98064.63;;;4.25;98.78
33781;BME280;20097;50.832;19.100;2022-12-29T03:08:22;98044.66;;;4.27;97.91
33781;BME280;20097;50.832;19.100;2022-12-29T03:13:37;98043.25;;;4.33;97.08
33781;BME280;20097;50.832;19.100;2022-12-29T03:19:07;98047.34;;;4.35;96.75
33781;BME280;20097;50.832;19.100;2022-12-29T03:24:13;98051.69;;;4.35;96.60
33781;BME280;20097;50.832;19.100;2022-12-29T03:29:23;98055.78;;;4.37;95.67
33781;BME280;20097;50.832;19.100;2022-12-29T03:34:39;98060.38;;;4.43;95.94
33781;BME280;20097;50.832;19.100;2022-12-29T03:39:55;98062.81;;;4.45;96.07
33781;BME280;20097;50.832;19.100;2022-12-29T03:45:00;98064.41;;;4.46;95.37
33781;BME280;20097;50.832;19.100;2022-12-29T03:50:08;98048.91;;;4.46;96.08
33781;BME280;20097;50.832;19.100;2022-12-29T03:55:15;98054.09;;;4.46;95.24
33781;BME280;20097;50.832;19.100;2022-12-29T04:00:21;98056.56;;;4.47;93.94
33781;BME280;20097;50.832;19.100;2022-12-29T04:05:27;98044.56;;;4.46;94.05
33781;BME280;20097;50.832;19.100;2022-12-29T04:10:38;98045.69;;;4.44;93.27
33781;BME280;20097;50.832;19.100;2022-12-29T04:15:43;98018.78;;;4.37;93.91
33781;BME280;20097;50.832;19.100;2022-12-29T04:20:50;98008.72;;;4.34;94.12
33781;BME280;20097;50.832;19.100;2022-12-29T04:26:28;97998.69;;;4.31;94.24
33781;BME280;20097;50.832;19.100;2022-12-29T04:31:47;98014.47;;;4.28;94.67
33781;BME280;20097;50.832;19.100;2022-12-29T04:36:59;98009.56;;;4.24;95.02
33781;BME280;20097;50.832;19.100;2022-12-29T04:42:04;98003.50;;;4.16;96.05
33781;BME280;20097;50.832;19.100;2022-12-29T04:47:15;97991.69;;;4.04;97.29
33781;BME280;20097;50.832;19.100;2022-12-29T04:52:29;98000.28;;;3.95;97.70
33781;BME280;20097;50.832;19.100;2022-12-29T04:57:34;98005.97;;;3.89;98.61
33781;BME280;20097;50.832;19.100;2022-12-29T05:02:39;98014.28;;;3.83;100.00
33781;BME280;20097;50.832;19.100;2022-12-29T05:07:48;98009.00;;;3.75;100.00
33781;BME280;20097;50.832;19.100;2022-12-29T05:12:53;97996.13;;;3.65;100.00
33781;BME280;20097;50.832;19.100;2022-12-29T05:17:58;97988.91;;;3.69;100.00
33781;BME280;20097;50.832;19.100;2022-12-29T05:23:10;97982.25;;;3.66;100.00
33781;BME280;20097;50.832;19.100;2022-12-29T05:28:16;97990.69;;;3.68;100.00
33781;BME280;20097;50.832;19.100;2022-12-29T05:33:51;97961.88;;;3.73;100.00
33781;BME280;20097;50.832;19.100;2022-12-29T05:38:58;97962.94;;;3.80;100.00
33781;BME280;20097;50.832;19.100;2022-12-29T05:44:12;97967.81;;;3.83;100.00
33781;BME280;20097;50.832;19.100;2022-12-29T05:49:24;97965.78;;;3.86;100.00
33781;BME280;20097;50.832;19.100;2022-12-29T05:54:49;97981.38;;;3.94;100.00
33781;BME280;20097;50.832;19.100;2022-12-29T05:59:57;97990.34;;;4.00;100.00
33781;BME280;20097;50.832;19.100;2022-12-29T06:05:05;97991.53;;;4.05;100.00
33781;BME280;20097;50.832;19.100;2022-12-29T06:10:16;97990.19;;;4.11;100.00
33781;BME280;20097;50.832;19.100;2022-12-29T06:15:41;97983.63;;;4.16;99.90
33781;BME280;20097;50.832;19.100;2022-12-29T06:20:46;97975.03;;;4.26;98.73
33781;BME280;20097;50.832;19.100;2022-12-29T06:25:55;97977.44;;;4.37;98.31
33781;BME280;20097;50.832;19.100;2022-12-29T06:31:03;97962.19;;;4.43;96.58
33781;BME280;20097;50.832;19.100;2022-12-29T06:36:08;97960.50;;;4.52;95.14
33781;BME280;20097;50.832;19.100;2022-12-29T06:41:14;97953.94;;;4.57;94.96
33781;BME280;20097;50.832;19.100;2022-12-29T06:46:54;97952.84;;;4.60;94.99
33781;BME280;20097;50.832;19.100;2022-12-29T06:52:04;97949.81;;;4.64;94.50
33781;BME280;20097;50.832;19.100;2022-12-29T06:57:16;97946.00;;;4.68;94.97
33781;BME280;20097;50.832;19.100;2022-12-29T07:02:21;97945.56;;;4.73;94.49
33781;BME280;20097;50.832;19.100;2022-12-29T07:07:31;97946.22;;;4.75;93.43
33781;BME280;20097;50.832;19.100;2022-12-29T07:12:43;97958.34;;;4.74;92.90
33781;BME280;20097;50.832;19.100;2022-12-29T07:17:51;97963.13;;;4.69;94.02
33781;BME280;20097;50.832;19.100;2022-12-29T07:22:56;97962.31;;;4.69;94.24
33781;BME280;20097;50.832;19.100;2022-12-29T07:28:02;97969.41;;;4.67;94.90
33781;BME280;20097;50.832;19.100;2022-12-29T07:33:10;97978.09;;;4.66;95.50
33781;BME280;20097;50.832;19.100;2022-12-29T07:38:17;97987.50;;;4.67;95.18
33781;BME280;20097;50.832;19.100;2022-12-29T07:43:27;97986.53;;;4.68;94.93
33781;BME280;20097;50.832;19.100;2022-12-29T07:48:59;97967.84;;;4.74;94.31
33781;BME280;20097;50.832;19.100;2022-12-29T07:54:09;97944.66;;;4.82;93.77
33781;BME280;20097;50.832;19.100;2022-12-29T07:59:16;97954.78;;;4.93;93.24
33781;BME280;20097;50.832;19.100;2022-12-29T08:04:21;97937.28;;;5.04;92.26
33781;BME280;20097;50.832;19.100;2022-12-29T08:09:26;97941.44;;;5.15;91.74
33781;BME280;20097;50.832;19.100;2022-12-29T08:14:31;97953.31;;;5.25;89.96
33781;BME280;20097;50.832;19.100;2022-12-29T08:19:37;97952.97;;;5.38;88.84
33781;BME280;20097;50.832;19.100;2022-12-29T08:24:41;97955.63;;;5.46;88.09
33781;BME280;20097;50.832;19.100;2022-12-29T08:29:47;97957.81;;;5.58;86.44
33781;BME280;20097;50.832;19.100;2022-12-29T08:34:51;97947.06;;;5.71;87.92
33781;BME280;20097;50.832;19.100;2022-12-29T08:39:56;97960.88;;;5.80;86.13
33781;BME280;20097;50.832;19.100;2022-12-29T08:45:03;97970.84;;;5.92;85.77
33781;BME280;20097;50.832;19.100;2022-12-29T08:50:07;97965.09;;;5.98;82.45
33781;BME280;20097;50.832;19.100;2022-12-29T08:55:12;97981.31;;;6.08;83.26
33781;BME280;20097;50.832;19.100;2022-12-29T09:00:21;97972.44;;;6.11;82.83
33781;BME280;20097;50.832;19.100;2022-12-29T09:05:26;97966.78;;;6.15;83.14
33781;BME280;20097;50.832;19.100;2022-12-29T09:10:31;97963.38;;;6.15;81.54
33781;BME280;20097;50.832;19.100;2022-12-29T09:15:38;97966.97;;;6.22;82.00
33781;BME280;20097;50.832;19.100;2022-12-29T09:20:42;97958.25;;;6.23;81.97
33781;BME280;20097;50.832;19.100;2022-12-29T09:25:47;97967.84;;;6.30;81.62
33781;BME280;20097;50.832;19.100;2022-12-29T09:30:59;97951.50;;;6.38;81.09
33781;BME280;20097;50.832;19.100;2022-12-29T09:36:04;97955.94;;;6.45;81.70
33781;BME280;20097;50.832;19.100;2022-12-29T09:41:15;97954.13;;;6.46;81.10
33781;BME280;20097;50.832;19.100;2022-12-29T09:46:27;97956.88;;;6.44;81.78
33781;BME280;20097;50.832;19.100;2022-12-29T09:51:33;97959.81;;;6.49;81.85
33781;BME280;20097;50.832;19.100;2022-12-29T09:56:40;97953.53;;;6.52;82.10
33781;BME280;20097;50.832;19.100;2022-12-29T10:01:49;97956.75;;;6.54;81.38
33781;BME280;20097;50.832;19.100;2022-12-29T10:07:02;97947.25;;;6.70;81.06
33781;BME280;20097;50.832;19.100;2022-12-29T10:12:40;97948.91;;;6.79;79.88
33781;BME280;20097;50.832;19.100;2022-12-29T10:17:57;97934.66;;;6.91;80.36
33781;BME280;20097;50.832;19.100;2022-12-29T10:23:22;97927.88;;;6.98;78.80
33781;BME280;20097;50.832;19.100;2022-12-29T10:28:37;97925.78;;;7.18;79.77
33781;BME280;20097;50.832;19.100;2022-12-29T10:33:44;97919.44;;;7.37;77.36
33781;BME280;20097;50.832;19.100;2022-12-29T10:39:00;97911.69;;;7.53;77.73
33781;BME280;20097;50.832;19.100;2022-12-29T10:44:11;97916.88;;;7.61;76.01
33781;BME280;20097;50.832;19.100;2022-12-29T10:49:20;97918.13;;;7.65;76.03
33781;BME280;20097;50.832;19.100;2022-12-29T10:54:29;97916.22;;;7.51;77.55
33781;BME280;20097;50.832;19.100;2022-12-29T10:59:37;97924.66;;;7.45;78.58
33781;BME280;20097;50.832;19.100;2022-12-29T11:04:51;97904.53;;;7.47;78.92
33781;BME280;20097;50.832;19.100;2022-12-29T11:10:19;97900.63;;;7.59;77.60
33781;BME280;20097;50.832;19.100;2022-12-29T11:15:23;97905.13;;;7.73;76.53
33781;BME280;20097;50.832;19.100;2022-12-29T11:20:35;97912.94;;;7.73;76.77
33781;BME280;20097;50.832;19.100;2022-12-29T11:25:41;97897.00;;;7.84;76.94
33781;BME280;20097;50.832;19.100;2022-12-29T11:30:45;97905.13;;;7.73;77.09
33781;BME280;20097;50.832;19.100;2022-12-29T11:36:06;97897.84;;;7.68;78.82
33781;BME280;20097;50.832;19.100;2022-12-29T11:41:18;97887.97;;;7.56;79.44
33781;BME280;20097;50.832;19.100;2022-12-29T11:46:27;97893.50;;;7.61;79.71
33781;BME280;20097;50.832;19.100;2022-12-29T11:51:39;97897.34;;;7.65;80.11
33781;BME280;20097;50.832;19.100;2022-12-29T11:56:47;97885.84;;;7.67;79.67
33781;BME280;20097;50.832;19.100;2022-12-29T12:01:53;97888.25;;;7.85;80.31
33781;BME280;20097;50.832;19.100;2022-12-29T12:07:07;97877.50;;;7.88;79.45
33781;BME280;20097;50.832;19.100;2022-12-29T12:12:27;97877.69;;;7.86;80.99
33781;BME280;20097;50.832;19.100;2022-12-29T12:17:42;97883.66;;;7.95;81.42
33781;BME280;20097;50.832;19.100;2022-12-29T12:22:58;97885.81;;;7.83;83.16
33781;BME280;20097;50.832;19.100;2022-12-29T12:28:13;97883.06;;;7.77;85.36
33781;BME280;20097;50.832;19.100;2022-12-29T12:33:27;97886.78;;;7.74;86.66
33781;BME280;20097;50.832;19.100;2022-12-29T12:38:41;97873.00;;;7.74;88.16
33781;BME280;20097;50.832;19.100;2022-12-29T12:43:51;97881.00;;;7.64;89.72
33781;BME280;20097;50.832;19.100;2022-12-29T12:49:29;97879.00;;;7.66;90.88
33781;BME280;20097;50.832;19.100;2022-12-29T12:54:56;97876.25;;;7.60;92.30
33781;BME280;20097;50.832;19.100;2022-12-29T13:00:10;97882.81;;;7.40;92.43
33781;BME280;20097;50.832;19.100;2022-12-29T13:05:32;97887.16;;;7.39;92.92
33781;BME280;20097;50.832;19.100;2022-12-29T13:10:47;97889.59;;;7.41;94.21
33781;BME280;20097;50.832;19.100;2022-12-29T13:16:01;97889.28;;;7.36;94.67
33781;BME280;20097;50.832;19.100;2022-12-29T13:21:33;97870.47;;;7.18;95.81
33781;BME280;20097;50.832;19.100;2022-12-29T13:26:47;97876.97;;;7.14;96.29
33781;BME280;20097;50.832;19.100;2022-12-29T13:32:14;97891.22;;;7.10;97.07
33781;BME280;20097;50.832;19.100;2022-12-29T13:37:28;97875.00;;;6.99;97.82
33781;BME280;20097;50.832;19.100;2022-12-29T13:42:36;97888.78;;;7.00;97.83
33781;BME280;20097;50.832;19.100;2022-12-29T13:47:46;97884.25;;;6.94;98.29
33781;BME280;20097;50.832;19.100;2022-12-29T13:53:03;97880.19;;;6.91;98.67
33781;BME280;20097;50.832;19.100;2022-12-29T13:58:20;97892.50;;;6.89;99.42
33781;BME280;20097;50.832;19.100;2022-12-29T14:03:48;97879.53;;;6.89;99.22
33781;BME280;20097;50.832;19.100;2022-12-29T14:08:56;97881.50;;;6.87;100.00
33781;BME280;20097;50.832;19.100;2022-12-29T14:14:12;97880.50;;;6.80;100.00
33781;BME280;20097;50.832;19.100;2022-12-29T14:19:23;97876.91;;;6.81;100.00
33781;BME280;20097;50.832;19.100;2022-12-29T14:24:43;97880.81;;;6.77;100.00
33781;BME280;20097;50.832;19.100;2022-12-29T14:29:51;97889.88;;;6.73;100.00
33781;BME280;20097;50.832;19.100;2022-12-29T14:34:57;97898.81;;;6.71;100.00
33781;BME280;20097;50.832;19.100;2022-12-29T14:40:05;97887.94;;;6.67;100.00
33781;BME280;20097;50.832;19.100;2022-12-29T14:45:28;97893.44;;;6.72;100.00
33781;BME280;20097;50.832;19.100;2022-12-29T14:50:41;97886.19;;;6.84;100.00
33781;BME280;20097;50.832;19.100;2022-12-29T14:55:48;97892.66;;;6.96;100.00
33781;BME280;20097;50.832;19.100;2022-12-29T15:00:59;97892.69;;;7.04;100.00
33781;BME280;20097;50.832;19.100;2022-12-29T15:06:06;97902.09;;;7.05;100.00
33781;BME280;20097;50.832;19.100;2022-12-29T15:11:21;97895.59;;;7.09;100.00
33781;BME280;20097;50.832;19.100;2022-12-29T15:16:32;97889.28;;;7.12;100.00
33781;BME280;20097;50.832;19.100;2022-12-29T15:21:42;97903.72;;;7.14;100.00
33781;BME280;20097;50.832;19.100;2022-12-29T15:26:51;97902.25;;;7.12;100.00
33781;BME280;20097;50.832;19.100;2022-12-29T15:32:00;97896.91;;;7.13;100.00
33781;BME280;20097;50.832;19.100;2022-12-29T15:37:06;97892.22;;;7.17;100.00
33781;BME280;20097;50.832;19.100;2022-12-29T15:42:48;97893.66;;;7.19;100.00
33781;BME280;20097;50.832;19.100;2022-12-29T15:47:58;97899.34;;;7.15;100.00
33781;BME280;20097;50.832;19.100;2022-12-29T15:53:10;97893.31;;;7.14;100.00
33781;BME280;20097;50.832;19.100;2022-12-29T15:58:22;97904.84;;;7.12;100.00
33781;BME280;20097;50.832;19.100;2022-12-29T16:03:32;97895.13;;;7.14;100.00
33781;BME280;20097;50.832;19.100;2022-12-29T16:08:39;97905.19;;;7.17;100.00
33781;BME280;20097;50.832;19.100;2022-12-29T16:13:44;97893.31;;;7.30;100.00
33781;BME280;20097;50.832;19.100;2022-12-29T16:18:53;97885.06;;;7.35;100.00
33781;BME280;20097;50.832;19.100;2022-12-29T16:24:02;97889.75;;;7.47;100.00
33781;BME280;20097;50.832;19.100;2022-12-29T16:29:12;97903.22;;;7.59;98.22
33781;BME280;20097;50.832;19.100;2022-12-29T16:34:25;97900.13;;;7.63;97.71
33781;BME280;20097;50.832;19.100;2022-12-29T16:39:34;97891.22;;;7.66;96.99
33781;BME280;20097;50.832;19.100;2022-12-29T16:44:39;97898.66;;;7.69;96.38
33781;BME280;20097;50.832;19.100;2022-12-29T16:49:51;97904.19;;;7.66;95.96
33781;BME280;20097;50.832;19.100;2022-12-29T16:54:59;97916.03;;;7.60;95.66
33781;BME280;20097;50.832;19.100;2022-12-29T17:00:07;97909.56;;;7.64;94.76
33781;BME280;20097;50.832;19.100;2022-12-29T17:05:23;97912.63;;;7.68;94.67
33781;BME280;20097;50.832;19.100;2022-12-29T17:10:29;97919.94;;;7.72;93.55
33781;BME280;20097;50.832;19.100;2022-12-29T17:15:53;97926.75;;;7.73;93.96
33781;BME280;20097;50.832;19.100;2022-12-29T17:20:59;97929.16;;;7.75;93.15
33781;BME280;20097;50.832;19.100;2022-12-29T17:26:12;97931.13;;;7.65;94.01
33781;BME280;20097;50.832;19.100;2022-12-29T17:31:17;97930.31;;;7.56;94.85
33781;BME280;20097;50.832;19.100;2022-12-29T17:36:23;97931.63;;;7.44;95.60
33781;BME280;20097;50.832;19.100;2022-12-29T17:41:28;97934.56;;;7.33;96.02
33781;BME280;20097;50.832;19.100;2022-12-29T17:46:33;97933.56;;;7.26;96.84
33781;BME280;20097;50.832;19.100;2022-12-29T17:51:41;97946.38;;;7.20;96.71
33781;BME280;20097;50.832;19.100;2022-12-29T17:56:45;97950.59;;;7.13;97.06
33781;BME280;20097;50.832;19.100;2022-12-29T18:01:50;97932.75;;;7.10;97.59
33781;BME280;20097;50.832;19.100;2022-12-29T18:06:55;97938.59;;;7.04;97.70
33781;BME280;20097;50.832;19.100;2022-12-29T18:12:00;97945.03;;;6.91;98.90
33781;BME280;20097;50.832;19.100;2022-12-29T18:17:10;97948.28;;;6.93;98.91
33781;BME280;20097;50.832;19.100;2022-12-29T18:22:17;97952.03;;;6.91;99.03
33781;BME280;20097;50.832;19.100;2022-12-29T18:27:21;97950.88;;;6.85;99.54
33781;BME280;20097;50.832;19.100;2022-12-29T18:32:25;97944.69;;;6.78;100.00
33781;BME280;20097;50.832;19.100;2022-12-29T18:37:31;97942.56;;;6.74;100.00
33781;BME280;20097;50.832;19.100;2022-12-29T18:42:36;97945.66;;;6.77;99.62
33781;BME280;20097;50.832;19.100;2022-12-29T18:47:40;97936.72;;;6.72;100.00
33781;BME280;20097;50.832;19.100;2022-12-29T18:52:46;97940.44;;;6.69;99.27
33781;BME280;20097;50.832;19.100;2022-12-29T18:57:51;97944.97;;;6.67;100.00
33781;BME280;20097;50.832;19.100;2022-12-29T19:02:55;97940.94;;;6.65;100.00
33781;BME280;20097;50.832;19.100;2022-12-29T19:08:01;97934.25;;;6.62;100.00
33781;BME280;20097;50.832;19.100;2022-12-29T19:13:06;97941.69;;;6.57;100.00
33781;BME280;20097;50.832;19.100;2022-12-29T19:18:16;97928.06;;;6.55;100.00
33781;BME280;20097;50.832;19.100;2022-12-29T19:23:43;97936.00;;;6.54;100.00
33781;BME280;20097;50.832;19.100;2022-12-29T19:28:47;97939.41;;;6.46;100.00
33781;BME280;20097;50.832;19.100;2022-12-29T19:33:51;97944.06;;;6.43;100.00
33781;BME280;20097;50.832;19.100;2022-12-29T19:38:57;97945.38;;;6.39;100.00
33781;BME280;20097;50.832;19.100;2022-12-29T19:44:02;97936.13;;;6.36;100.00
33781;BME280;20097;50.832;19.100;2022-12-29T19:49:07;97947.63;;;6.34;100.00
33781;BME280;20097;50.832;19.100;2022-12-29T19:54:12;97945.69;;;6.36;100.00
33781;BME280;20097;50.832;19.100;2022-12-29T19:59:17;97941.63;;;6.33;100.00
33781;BME280;20097;50.832;19.100;2022-12-29T20:04:21;97957.31;;;6.32;100.00
33781;BME280;20097;50.832;19.100;2022-12-29T20:09:27;97950.53;;;6.31;100.00
33781;BME280;20097;50.832;19.100;2022-12-29T20:14:32;97945.16;;;6.24;100.00
33781;BME280;20097;50.832;19.100;2022-12-29T20:19:37;97949.63;;;6.14;100.00
33781;BME280;20097;50.832;19.100;2022-12-29T20:24:43;97944.25;;;6.08;100.00
33781;BME280;20097;50.832;19.100;2022-12-29T20:29:52;97940.78;;;5.99;100.00
33781;BME280;20097;50.832;19.100;2022-12-29T20:34:57;97938.53;;;5.96;100.00
33781;BME280;20097;50.832;19.100;2022-12-29T20:40:03;97934.00;;;5.98;100.00
33781;BME280;20097;50.832;19.100;2022-12-29T20:45:09;97940.78;;;5.99;100.00
33781;BME280;20097;50.832;19.100;2022-12-29T20:50:13;97940.63;;;6.01;100.00
33781;BME280;20097;50.832;19.100;2022-12-29T20:55:19;97935.94;;;5.96;100.00
33781;BME280;20097;50.832;19.100;2022-12-29T21:00:24;97942.97;;;5.86;100.00
33781;BME280;20097;50.832;19.100;2022-12-29T21:05:36;97936.13;;;5.77;100.00
33781;BME280;20097;50.832;19.100;2022-12-29T21:10:45;97942.69;;;5.72;100.00
33781;BME280;20097;50.832;19.100;2022-12-29T21:15:55;97943.00;;;5.69;100.00
33781;BME280;20097;50.832;19.100;2022-12-29T21:21:02;97945.84;;;5.57;100.00
33781;BME280;20097;50.832;19.100;2022-12-29T21:26:09;97941.91;;;5.53;100.00
33781;BME280;20097;50.832;19.100;2022-12-29T21:31:23;97949.41;;;5.39;100.00
33781;BME280;20097;50.832;19.100;2022-12-29T21:36:29;97967.53;;;5.39;100.00
33781;BME280;20097;50.832;19.100;2022-12-29T21:41:36;97976.84;;;5.32;100.00
33781;BME280;20097;50.832;19.100;2022-12-29T21:46:40;97971.97;;;5.29;100.00
33781;BME280;20097;50.832;19.100;2022-12-29T21:51:46;97986.47;;;5.22;100.00
33781;BME280;20097;50.832;19.100;2022-12-29T21:56:54;97986.59;;;5.20;100.00
33781;BME280;20097;50.832;19.100;2022-12-29T22:01:58;97990.06;;;5.11;100.00
33781;BME280;20097;50.832;19.100;2022-12-29T22:07:20;97997.00;;;5.11;100.00
33781;BME280;20097;50.832;19.100;2022-12-29T22:12:43;97996.22;;;5.10;100.00
33781;BME280;20097;50.832;19.100;2022-12-29T22:18:03;97993.94;;;5.07;100.00
33781;BME280;20097;50.832;19.100;2022-12-29T22:23:08;97995.00;;;5.05;100.00
33781;BME280;20097;50.832;19.100;2022-12-29T22:28:13;97986.28;;;5.06;100.00
33781;BME280;20097;50.832;19.100;2022-12-29T22:33:19;97988.38;;;5.02;100.00
33781;BME280;20097;50.832;19.100;2022-12-29T22:38:23;97994.34;;;5.03;100.00
33781;BME280;20097;50.832;19.100;2022-12-29T22:43:29;97988.66;;;4.99;100.00
33781;BME280;20097;50.832;19.100;2022-12-29T22:48:37;97982.44;;;4.92;100.00
33781;BME280;20097;50.832;19.100;2022-12-29T22:53:47;97989.75;;;4.97;100.00
33781;BME280;20097;50.832;19.100;2022-12-29T22:58:53;97989.53;;;4.90;100.00
33781;BME280;20097;50.832;19.100;2022-12-29T23:03:58;97982.59;;;4.91;100.00
33781;BME280;20097;50.832;19.100;2022-12-29T23:09:22;97981.25;;;4.87;100.00
33781;BME280;20097;50.832;19.100;2022-12-29T23:14:28;97974.75;;;4.83;100.00
33781;BME280;20097;50.832;19.100;2022-12-29T23:19:32;97977.50;;;4.81;100.00
33781;BME280;20097;50.832;19.100;2022-12-29T23:24:36;97983.75;;;4.79;100.00
33781;BME280;20097;50.832;19.100;2022-12-29T23:29:42;97980.09;;;4.72;100.00
33781;BME280;20097;50.832;19.100;2022-12-29T23:34:47;97996.59;;;4.71;100.00
33781;BME280;20097;50.832;19.100;2022-12-29T23:39:51;97980.25;;;4.70;100.00
33781;BME280;20097;50.832;19.100;2022-12-29T23:44:57;97978.88;;;4.76;100.00
33781;BME280;20097;50.832;19.100;2022-12-29T23:50:12;97975.69;;;4.82;100.00
33781;BME280;20097;50.832;19.100;2022-12-29T23:55:17;97972.31;;;4.81;100.00
